METAR Data
IDs: Format: Raw Decoded Include TAF

Data at: 0306 UTC 20 Jan 2022

LKKV 200300Z 26010KT 220V290 6000 -SN OVC006 00/M01 Q1015